createdAt,value
2023-04-01T00:02:27.493Z,8.83
2023-04-01T00:04:58.498Z,8.83
2023-04-01T00:07:30.773Z,8.83
2023-04-01T00:10:01.539Z,8.84
2023-04-01T00:12:31.878Z,8.86
2023-04-01T00:15:02.837Z,8.79
2023-04-01T00:17:33.104Z,8.74
2023-04-01T00:20:04.224Z,8.73
2023-04-01T00:22:35.402Z,8.73
2023-04-01T00:25:06.680Z,8.67
2023-04-01T00:27:36.714Z,8.66
2023-04-01T00:30:08.730Z,8.68
2023-04-01T00:32:39.191Z,8.68
2023-04-01T00:35:09.640Z,8.71
2023-04-01T00:37:40.833Z,8.73
2023-04-01T00:40:29.523Z,8.75
2023-04-01T00:43:00.400Z,8.76
2023-04-01T00:45:42.917Z,8.78
2023-04-01T00:48:17.607Z,8.79
2023-04-01T00:51:04.126Z,8.81
2023-04-01T00:53:38.036Z,8.82
2023-04-01T00:56:38.329Z,8.82
2023-04-01T00:59:15.861Z,8.80
2023-04-01T01:01:46.538Z,8.77
2023-04-01T01:04:31.664Z,8.74
2023-04-01T01:07:20.084Z,8.72
2023-04-01T01:10:14.956Z,8.66
2023-04-01T01:12:45.450Z,8.60
2023-04-01T01:15:24.056Z,8.53
2023-04-01T01:18:18.426Z,8.42
2023-04-01T01:21:02.663Z,8.34
2023-04-01T01:23:44.668Z,8.32
2023-04-01T01:26:36.454Z,8.33
2023-04-01T01:29:28.412Z,8.36
2023-04-01T01:32:10.844Z,8.37
2023-04-01T01:34:49.052Z,8.40
2023-04-01T01:37:22.552Z,8.42
2023-04-01T01:40:05.024Z,8.43
2023-04-01T01:42:40.120Z,8.46
2023-04-01T01:45:13.172Z,8.49
2023-04-01T01:47:44.316Z,8.55
2023-04-01T01:50:16.792Z,8.60
2023-04-01T01:52:46.825Z,8.64
2023-04-01T01:55:31.499Z,8.67
2023-04-01T01:58:23.664Z,8.68
2023-04-01T02:01:06.564Z,8.70
2023-04-01T02:03:39.141Z,8.73
2023-04-01T02:06:12.450Z,8.75
2023-04-01T02:08:53.198Z,8.78
2023-04-01T02:11:34.084Z,8.67
2023-04-01T02:14:22.664Z,8.58
2023-04-01T02:17:03.796Z,8.56
2023-04-01T02:19:52.364Z,8.56
2023-04-01T02:22:31.225Z,8.56
2023-04-01T02:25:09.709Z,8.49
2023-04-01T02:27:41.743Z,8.50
2023-04-01T02:30:12.178Z,8.51
2023-04-01T02:32:42.858Z,8.54
2023-04-01T02:35:15.280Z,8.59
2023-04-01T02:37:49.932Z,8.63
2023-04-01T02:40:21.667Z,8.65
2023-04-01T02:42:52.252Z,8.68
2023-04-01T02:45:22.398Z,8.72
2023-04-01T02:47:52.522Z,8.74
2023-04-01T02:50:23.066Z,8.70
2023-04-01T02:52:53.048Z,8.69
2023-04-01T02:55:23.253Z,8.67
2023-04-01T02:57:53.722Z,8.52
2023-04-01T03:00:23.862Z,8.44
2023-04-01T03:02:54.827Z,8.33
2023-04-01T03:05:25.419Z,8.28
2023-04-01T03:07:55.927Z,8.23
2023-04-01T03:10:27.002Z,8.19
2023-04-01T03:12:57.335Z,8.19
2023-04-01T03:15:27.367Z,8.19
2023-04-01T03:17:56.978Z,8.22
2023-04-01T03:20:29.461Z,8.24
2023-04-01T03:22:59.833Z,8.18
2023-04-01T03:25:32.266Z,8.15
2023-04-01T03:28:03.626Z,8.13
2023-04-01T03:30:35.159Z,8.12
2023-04-01T03:33:04.471Z,8.11
2023-04-01T03:35:37.435Z,8.11
2023-04-01T03:38:07.535Z,8.16
2023-04-01T03:40:39.700Z,8.21
2023-04-01T03:43:11.385Z,8.23
2023-04-01T03:45:52.546Z,8.19
2023-04-01T03:48:23.270Z,8.17
2023-04-01T03:50:53.782Z,8.15
2023-04-01T03:53:23.900Z,8.13
2023-04-01T03:55:54.619Z,8.08
2023-04-01T03:58:24.781Z,8.02
2023-04-01T04:00:55.073Z,7.99
2023-04-01T04:03:24.928Z,7.98
2023-04-01T04:05:57.149Z,8.01
2023-04-01T04:08:27.345Z,8.04
2023-04-01T04:10:58.053Z,8.01
2023-04-01T04:13:28.528Z,8.00
2023-04-01T04:16:05.037Z,7.98
2023-04-01T04:18:36.170Z,7.98
2023-04-01T04:21:06.799Z,8.01
2023-04-01T04:23:38.710Z,8.04
2023-04-01T04:26:11.532Z,8.07
2023-04-01T04:28:42.005Z,8.11
2023-04-01T04:31:12.398Z,8.15
2023-04-01T04:33:44.743Z,8.22
2023-04-01T04:36:15.859Z,8.27
2023-04-01T04:38:47.147Z,8.31
2023-04-01T04:41:19.450Z,8.35
2023-04-01T04:43:57.489Z,8.40
2023-04-01T04:46:28.311Z,8.44
2023-04-01T04:49:03.410Z,8.41
2023-04-01T04:51:35.909Z,8.33
2023-04-01T04:54:06.364Z,8.27
2023-04-01T04:56:49.204Z,8.21
2023-04-01T04:59:19.616Z,8.22
2023-04-01T05:02:00.311Z,8.26
2023-04-01T05:04:35.565Z,8.28
2023-04-01T05:07:06.813Z,8.30
2023-04-01T05:09:37.171Z,8.32
2023-04-01T05:12:07.622Z,8.37
2023-04-01T05:14:58.307Z,8.45
2023-04-01T05:17:28.645Z,8.50
2023-04-01T05:20:01.369Z,8.55
2023-04-01T05:22:32.433Z,8.56
2023-04-01T05:25:01.464Z,8.50
2023-04-01T05:27:33.264Z,8.48
2023-04-01T05:30:04.544Z,8.48
2023-04-01T05:32:53.522Z,8.43
2023-04-01T05:35:24.674Z,8.38
2023-04-01T05:37:57.248Z,8.33
2023-04-01T05:40:26.798Z,8.31
2023-04-01T05:42:58.349Z,8.30
2023-04-01T05:45:29.307Z,8.31
2023-04-01T05:48:29.934Z,8.34
2023-04-01T05:51:00.547Z,8.41
2023-04-01T05:53:31.259Z,8.46
2023-04-01T05:56:06.084Z,8.47
2023-04-01T05:58:38.944Z,8.45
2023-04-01T06:01:16.291Z,8.44
2023-04-01T06:03:47.982Z,8.43
2023-04-01T06:06:26.681Z,8.43
2023-04-01T06:09:03.436Z,8.44
2023-04-01T06:11:52.374Z,8.45
2023-04-01T06:14:29.833Z,8.46
2023-04-01T06:17:23.862Z,8.45
2023-04-01T06:20:31.897Z,8.46
2023-04-01T06:23:17.401Z,8.48
2023-04-01T06:25:56.809Z,8.50
2023-04-01T06:28:39.314Z,8.53
2023-04-01T06:31:33.944Z,8.55
2023-04-01T06:34:39.810Z,8.54
2023-04-01T06:37:48.191Z,8.58
2023-04-01T06:40:24.773Z,8.64
2023-04-01T06:43:09.349Z,8.68
2023-04-01T06:46:19.797Z,8.75
2023-04-01T06:49:15.648Z,8.81
2023-04-01T06:52:16.848Z,8.84
2023-04-01T06:55:28.053Z,8.90
2023-04-01T06:58:27.954Z,8.95
2023-04-01T07:01:06.198Z,8.99
2023-04-01T07:03:46.112Z,9.03
2023-04-01T07:06:47.988Z,9.06
2023-04-01T07:09:40.336Z,9.09
2023-04-01T07:12:55.671Z,9.12
2023-04-01T07:15:44.328Z,9.14
2023-04-01T07:18:30.300Z,9.16
2023-04-01T07:21:02.334Z,9.17
2023-04-01T07:23:44.189Z,9.19
2023-04-01T07:26:35.249Z,9.19
2023-04-01T07:29:12.478Z,9.19
2023-04-01T07:32:04.095Z,9.19
2023-04-01T07:34:52.392Z,9.19
2023-04-01T07:38:00.890Z,9.18
2023-04-01T07:40:54.964Z,9.18
2023-04-01T07:43:41.065Z,9.22
2023-04-01T07:46:50.427Z,9.27
2023-04-01T07:49:36.375Z,9.31
2023-04-01T07:52:34.592Z,9.33
2023-04-01T07:55:26.204Z,9.37
2023-04-01T07:58:03.537Z,9.39
2023-04-01T08:01:09.014Z,9.42
2023-04-01T08:04:02.798Z,9.49
2023-04-01T08:06:58.298Z,9.57
2023-04-01T08:09:37.710Z,9.63
2023-04-01T08:13:08.931Z,9.67
2023-04-01T08:16:11.775Z,9.70
2023-04-01T08:18:57.298Z,9.70
2023-04-01T08:21:53.051Z,9.72
2023-04-01T08:24:48.572Z,9.73
2023-04-01T08:27:36.909Z,9.71
2023-04-01T08:30:45.538Z,9.71
2023-04-01T08:33:33.300Z,9.70
2023-04-01T08:36:26.276Z,9.74
2023-04-01T08:39:15.035Z,9.79
2023-04-01T08:42:14.161Z,9.87
2023-04-01T08:45:43.516Z,9.98
2023-04-01T08:48:47.445Z,10.11
2023-04-01T08:51:52.206Z,10.27
2023-04-01T08:54:34.220Z,10.45
2023-04-01T08:57:11.133Z,10.63
2023-04-01T09:00:13.085Z,10.75
2023-04-01T09:03:22.496Z,10.91
2023-04-01T09:06:23.865Z,11.11
2023-04-01T09:09:23.322Z,11.25
2023-04-01T09:12:25.920Z,11.25
2023-04-01T09:15:22.816Z,11.36
2023-04-01T09:18:11.471Z,11.56
2023-04-01T09:21:04.581Z,11.68
2023-04-01T09:23:56.508Z,11.72
2023-04-01T09:26:47.060Z,11.75
2023-04-01T09:29:55.226Z,11.74
2023-04-01T09:33:02.573Z,11.76
2023-04-01T09:36:00.897Z,11.85
2023-04-01T09:39:05.099Z,11.88
2023-04-01T09:41:54.769Z,11.91
2023-04-01T09:44:46.441Z,12.00
2023-04-01T09:47:17.781Z,12.06
2023-04-01T09:50:02.673Z,12.07
2023-04-01T09:52:53.076Z,12.06
2023-04-01T09:56:04.997Z,12.04
2023-04-01T09:59:07.500Z,12.00
2023-04-01T10:02:17.155Z,11.96
2023-04-01T10:04:52.651Z,11.90
2023-04-01T10:07:26.722Z,11.87
2023-04-01T10:10:29.277Z,11.80
2023-04-01T10:13:26.762Z,11.74
2023-04-01T10:16:14.415Z,11.71
2023-04-01T10:19:18.041Z,11.71
2023-04-01T10:22:06.684Z,11.68
2023-04-01T10:25:06.303Z,11.65
2023-04-01T10:27:51.979Z,11.60
2023-04-01T10:31:15.428Z,11.58
2023-04-01T10:34:07.703Z,11.61
2023-04-01T10:36:59.455Z,11.63
2023-04-01T10:40:23.983Z,11.65
2023-04-01T10:43:42.462Z,11.62
2023-04-01T10:46:53.715Z,11.62
2023-04-01T10:49:25.849Z,11.62
2023-04-01T10:52:24.170Z,11.62
2023-04-01T10:55:58.652Z,11.66
2023-04-01T10:59:13.332Z,11.72
2023-04-01T11:03:00.292Z,11.76
2023-04-01T11:06:25.339Z,11.77
2023-04-01T11:09:13.163Z,11.84
2023-04-01T11:12:08.057Z,11.82
2023-04-01T11:15:00.367Z,11.84
2023-04-01T11:17:44.529Z,11.92
2023-04-01T11:20:28.030Z,12.00
2023-04-01T11:23:07.207Z,12.13
2023-04-01T11:25:56.141Z,12.27
2023-04-01T11:29:16.831Z,12.45
2023-04-01T11:32:23.699Z,12.54
2023-04-01T11:35:21.078Z,12.59
2023-04-01T11:37:58.498Z,12.63
2023-04-01T11:41:25.343Z,12.57
2023-04-01T11:44:03.236Z,12.58
2023-04-01T11:47:26.121Z,12.64
2023-04-01T11:50:25.428Z,12.67
2023-04-01T11:53:05.075Z,12.66
2023-04-01T11:56:04.883Z,12.64
2023-04-01T11:59:17.468Z,12.72
2023-04-01T12:02:01.958Z,12.82
2023-04-01T12:04:56.035Z,12.95
2023-04-01T12:07:42.369Z,13.06
2023-04-01T12:10:35.806Z,13.11
2023-04-01T12:13:27.026Z,13.24
2023-04-01T12:16:06.584Z,13.34
2023-04-01T12:18:55.875Z,13.41
2023-04-01T12:21:45.117Z,13.44
2023-04-01T12:24:36.752Z,13.49
2023-04-01T12:27:34.342Z,13.54
2023-04-01T12:30:32.079Z,13.64
2023-04-01T12:33:26.176Z,13.77
2023-04-01T12:36:10.227Z,13.86
2023-04-01T12:39:21.669Z,13.88
2023-04-01T12:42:29.829Z,13.96
2023-04-01T12:45:21.534Z,14.21
2023-04-01T12:48:15.215Z,14.45
2023-04-01T12:51:33.410Z,14.60
2023-04-01T12:54:42.720Z,14.82
2023-04-01T12:57:26.642Z,15.06
2023-04-01T13:00:17.291Z,15.13
2023-04-01T13:03:07.769Z,15.22
2023-04-01T13:05:58.851Z,15.31
2023-04-01T13:08:58.252Z,15.30
2023-04-01T13:12:02.178Z,15.25
2023-04-01T13:15:19.272Z,15.23
2023-04-01T13:18:26.164Z,15.18
2023-04-01T13:21:25.604Z,15.14
2023-04-01T13:24:30.276Z,15.06
2023-04-01T13:27:24.614Z,14.95
2023-04-01T13:30:03.692Z,14.88
2023-04-01T13:35:26.139Z,14.81
2023-04-01T13:38:40.839Z,14.73
2023-04-01T13:41:40.955Z,14.58
2023-04-01T13:44:40.235Z,14.46
2023-04-01T13:47:19.766Z,14.35
2023-04-01T13:49:59.851Z,14.21
2023-04-01T13:53:18.361Z,14.07
2023-04-01T13:56:01.658Z,13.93
2023-04-01T13:58:47.667Z,13.81
2023-04-01T14:01:42.142Z,13.72
2023-04-01T14:04:48.110Z,13.63
2023-04-01T14:07:28.155Z,13.52
2023-04-01T14:10:07.160Z,13.47
2023-04-01T14:13:00.158Z,13.41
2023-04-01T14:15:50.368Z,13.33
2023-04-01T14:18:44.180Z,13.29
2023-04-01T14:21:35.454Z,13.23
2023-04-01T14:24:29.061Z,13.19
2023-04-01T14:27:26.413Z,13.17
2023-04-01T14:30:31.245Z,13.11
2023-04-01T14:33:14.316Z,13.05
2023-04-01T14:36:12.532Z,12.94
2023-04-01T14:39:01.050Z,12.71
2023-04-01T14:41:42.725Z,12.53
2023-04-01T14:44:44.306Z,12.47
2023-04-01T14:47:40.899Z,12.42
2023-04-01T14:50:30.379Z,12.44
2023-04-01T14:53:40.317Z,12.46
2023-04-01T14:56:10.389Z,12.25
2023-04-01T14:58:59.719Z,12.11
2023-04-01T15:01:47.582Z,11.99
2023-04-01T15:04:43.112Z,11.84
2023-04-01T15:07:12.054Z,11.66
2023-04-01T15:09:45.305Z,11.50
2023-04-01T15:12:34.802Z,11.40
2023-04-01T15:15:37.361Z,11.30
2023-04-01T15:18:22.016Z,11.25
2023-04-01T15:20:58.381Z,11.24
2023-04-01T15:23:37.319Z,11.27
2023-04-01T15:26:35.216Z,11.32
2023-04-01T15:29:13.238Z,11.34
2023-04-01T15:32:00.371Z,11.37
2023-04-01T15:35:09.391Z,11.46
2023-04-01T15:38:05.086Z,11.51
2023-04-01T15:40:52.889Z,11.55
2023-04-01T15:43:27.442Z,11.60
2023-04-01T15:46:13.311Z,11.55
2023-04-01T15:49:06.945Z,11.56
2023-04-01T15:51:52.394Z,11.49
2023-04-01T15:55:01.233Z,11.40
2023-04-01T15:57:37.293Z,11.33
2023-04-01T16:00:32.670Z,11.33
2023-04-01T16:03:05.580Z,11.30
2023-04-01T16:05:36.614Z,11.24
2023-04-01T16:08:37.090Z,11.16
2023-04-01T16:11:43.151Z,11.12
2023-04-01T16:15:04.848Z,11.12
2023-04-01T16:17:48.217Z,11.09
2023-04-01T16:20:29.425Z,11.05
2023-04-01T16:23:13.944Z,11.06
2023-04-01T16:26:01.371Z,11.08
2023-04-01T16:28:47.491Z,11.07
2023-04-01T16:31:37.260Z,11.06
2023-04-01T16:34:27.807Z,11.03
2023-04-01T16:37:24.675Z,10.96
2023-04-01T16:40:27.025Z,10.88
2023-04-01T16:43:20.509Z,10.82
2023-04-01T16:46:08.841Z,10.76
2023-04-01T16:49:11.400Z,10.63
2023-04-01T16:51:58.762Z,10.49
2023-04-01T16:54:44.128Z,10.38
2023-04-01T16:57:29.555Z,10.32
2023-04-01T17:00:40.225Z,10.27
2023-04-01T17:03:19.988Z,10.18
2023-04-01T17:06:11.855Z,10.17
2023-04-01T17:08:59.261Z,10.24
2023-04-01T17:11:47.734Z,10.31
2023-04-01T17:14:36.098Z,10.38
2023-04-01T17:17:32.213Z,10.43
2023-04-01T17:20:17.857Z,10.45
2023-04-01T17:23:12.071Z,10.45
2023-04-01T17:26:09.782Z,10.46
2023-04-01T17:28:49.503Z,10.49
2023-04-01T17:31:28.557Z,10.52
2023-04-01T17:34:07.197Z,10.55
2023-04-01T17:37:17.955Z,10.57
2023-04-01T17:40:02.556Z,10.59
2023-04-01T17:42:39.262Z,10.60
2023-04-01T17:45:32.001Z,10.59
2023-04-01T17:48:14.077Z,10.61
2023-04-01T17:51:01.659Z,10.61
2023-04-01T17:53:53.252Z,10.61
2023-04-01T17:56:52.245Z,10.59
2023-04-01T17:59:47.554Z,10.56
2023-04-01T18:02:40.564Z,10.53
2023-04-01T18:05:16.964Z,10.50
2023-04-01T18:07:54.876Z,10.48
2023-04-01T18:10:36.730Z,10.46
2023-04-01T18:13:25.417Z,10.42
2023-04-01T18:16:20.066Z,10.41
2023-04-01T18:19:02.554Z,10.38
2023-04-01T18:21:43.139Z,10.35
2023-04-01T18:24:35.782Z,10.33
2023-04-01T18:27:17.219Z,10.32
2023-04-01T18:30:14.907Z,10.30
2023-04-01T18:33:24.720Z,10.30
2023-04-01T18:36:16.070Z,10.28
2023-04-01T18:39:10.255Z,10.27
2023-04-01T18:42:25.720Z,10.25
2023-04-01T18:45:24.310Z,10.21
2023-04-01T18:48:15.544Z,10.15
2023-04-01T18:51:06.227Z,10.11
2023-04-01T18:53:51.297Z,10.08
2023-04-01T18:56:27.659Z,10.05
2023-04-01T18:59:24.379Z,10.04
2023-04-01T19:02:22.389Z,10.00
2023-04-01T19:05:07.678Z,9.94
2023-04-01T19:07:50.876Z,9.89
2023-04-01T19:10:42.536Z,9.85
2023-04-01T19:13:41.973Z,9.79
2023-04-01T19:16:29.660Z,9.71
2023-04-01T19:19:08.512Z,9.65
2023-04-01T19:21:49.673Z,9.61
2023-04-01T19:24:38.310Z,9.58
2023-04-01T19:27:08.000Z,9.53
2023-04-01T19:29:49.289Z,9.50
2023-04-01T19:32:40.350Z,9.50
2023-04-01T19:35:22.692Z,9.49
2023-04-01T19:38:24.068Z,9.48
2023-04-01T19:41:33.823Z,9.49
2023-04-01T19:44:16.124Z,9.48
2023-04-01T19:46:57.230Z,9.46
2023-04-01T19:50:05.503Z,9.45
2023-04-01T19:52:42.845Z,9.45
2023-04-01T19:55:29.416Z,9.44
2023-04-01T19:58:18.599Z,9.43
2023-04-01T20:00:55.629Z,9.42
2023-04-01T20:03:33.276Z,9.40
2023-04-01T20:06:32.565Z,9.38
2023-04-01T20:09:56.206Z,9.33
2023-04-01T20:12:57.015Z,9.28
2023-04-01T20:15:37.229Z,9.25
2023-04-01T20:18:22.102Z,9.26
2023-04-01T20:21:21.048Z,9.27
2023-04-01T20:24:09.146Z,9.22
2023-04-01T20:26:40.888Z,9.14
2023-04-01T20:29:23.937Z,9.03
2023-04-01T20:32:42.741Z,8.91
2023-04-01T20:35:38.785Z,8.88
2023-04-01T20:38:37.384Z,8.82
2023-04-01T20:41:16.006Z,8.81
2023-04-01T20:43:55.367Z,8.81
2023-04-01T20:46:29.480Z,8.76
2023-04-01T20:49:24.867Z,8.77
2023-04-01T20:52:19.435Z,8.76
2023-04-01T20:55:10.921Z,8.77
2023-04-01T20:57:53.741Z,8.77
2023-04-01T21:00:49.814Z,8.79
2023-04-01T21:03:23.346Z,8.81
2023-04-01T21:06:20.615Z,8.82
2023-04-01T21:09:13.718Z,8.77
2023-04-01T21:11:46.915Z,8.72
2023-04-01T21:14:46.505Z,8.65
2023-04-01T21:17:31.654Z,8.55
2023-04-01T21:20:48.660Z,8.50
2023-04-01T21:23:39.626Z,8.49
2023-04-01T21:26:44.945Z,8.50
2023-04-01T21:29:35.949Z,8.52
2023-04-01T21:32:23.070Z,8.54
2023-04-01T21:35:12.911Z,8.54
2023-04-01T21:37:49.157Z,8.52
2023-04-01T21:40:34.544Z,8.48
2023-04-01T21:43:11.201Z,8.46
2023-04-01T21:46:05.761Z,8.45
2023-04-01T21:48:55.264Z,8.40
2023-04-01T21:52:12.328Z,8.38
2023-04-01T21:55:19.416Z,8.39
2023-04-01T21:58:10.934Z,8.41
2023-04-01T22:00:44.331Z,8.43
2023-04-01T22:03:27.297Z,8.45
2023-04-01T22:06:15.426Z,8.45
2023-04-01T22:08:59.944Z,8.45
2023-04-01T22:11:51.103Z,8.47
2023-04-01T22:14:38.066Z,8.46
2023-04-01T22:17:39.838Z,8.44
2023-04-01T22:20:28.598Z,8.41
2023-04-01T22:23:29.611Z,8.38
2023-04-01T22:26:09.272Z,8.38
2023-04-01T22:28:45.463Z,8.38
2023-04-01T22:31:22.442Z,8.37
2023-04-01T22:34:18.795Z,8.35
2023-04-01T22:37:16.144Z,8.26
2023-04-01T22:40:02.853Z,8.19
2023-04-01T22:42:54.518Z,8.19
2023-04-01T22:45:38.234Z,8.15
2023-04-01T22:48:22.720Z,8.12
2023-04-01T22:51:13.821Z,8.11
2023-04-01T22:53:59.679Z,8.10
2023-04-01T22:56:59.174Z,8.04
2023-04-01T22:59:40.792Z,7.98
2023-04-01T23:02:28.242Z,7.97
2023-04-01T23:05:02.735Z,7.96
2023-04-01T23:07:50.827Z,7.93
2023-04-01T23:10:37.678Z,7.88
2023-04-01T23:13:19.433Z,7.78
2023-04-01T23:15:49.462Z,7.78
2023-04-01T23:18:22.541Z,7.80
2023-04-01T23:21:10.426Z,7.78
2023-04-01T23:23:55.779Z,7.74
2023-04-01T23:26:53.021Z,7.70
2023-04-01T23:29:24.145Z,7.70
2023-04-01T23:32:04.387Z,7.72
2023-04-01T23:34:38.040Z,7.74
2023-04-01T23:37:13.719Z,7.70
2023-04-01T23:39:50.213Z,7.70
2023-04-01T23:42:32.885Z,7.71
2023-04-01T23:45:15.090Z,7.69
2023-04-01T23:47:47.383Z,7.67
2023-04-01T23:50:24.817Z,7.66
2023-04-01T23:53:04.992Z,7.65
2023-04-01T23:55:37.196Z,7.62
2023-04-01T23:58:08.355Z,7.59
